Accueil
METAR-TAF:

METAR-TAF

Aéroports :

Arnhem, Pays-Bas

latitude: 52-04N, longitude: 005-53E, altitude: 48 m

Observation

Le bulletin a été fait il y a 30 minutes, à 17:55 UTC
Vent 4 kt de ouest/sud-ouest, variant entre sud et nord-ouest
Température 1°C
Humidité 100%
Pression 1014 hPa
Visibilité 10 km ou plus
Nuages épars à une hauteur de 2400 ft
Nuages fragmentés à une hauteur de 2900 ft
Nuages fragmentés à une hauteur de 3800 ft
faible bruine

METAR: EHDL 161755Z AUTO 24004KT 180V310 9999 -DZ SCT024 BKN029 BKN038 01/01 Q1014 WHT

Heure: 19:25 (18:25 UTC)


TAF: absent

Observations et prévisions météorologiques de plus de 4000 aéroports (messages METAR et TAF).

Les stations disponibles sont représentées par des disques jaunes et rouges sur la carte.

Passer la souris dessus pour voir le nom de la station.

Cliquer dessus pour voir les observations et prévisions météorologiques.

Pour changer de carte: cliquez sur les boutons verts avec une croix noire pour zoomer, sur le bouton vert avec un tiret pour effectuer un zoom arrière, ou sur les flèches vertes pour les cartes adjacentes.


METAR-TAF: